sensor_id;sensor_type;location;lat;lon;timestamp;P1;durP1;ratioP1;P2;durP2;ratioP2
16460;SDS011;8341;42.048;24.650;2023-12-20T00:02:19;1.73;;;1.63;;
16460;SDS011;8341;42.048;24.650;2023-12-20T00:04:45;1.52;;;1.40;;
16460;SDS011;8341;42.048;24.650;2023-12-20T00:07:12;1.30;;;0.90;;
16460;SDS011;8341;42.048;24.650;2023-12-20T00:09:39;2.00;;;1.30;;
16460;SDS011;8341;42.048;24.650;2023-12-20T00:12:08;5.03;;;1.93;;
16460;SDS011;8341;42.048;24.650;2023-12-20T00:14:35;1.10;;;1.00;;
16460;SDS011;8341;42.048;24.650;2023-12-20T00:17:02;1.60;;;1.10;;
16460;SDS011;8341;42.048;24.650;2023-12-20T00:19:29;1.25;;;0.80;;
16460;SDS011;8341;42.048;24.650;2023-12-20T00:21:56;0.93;;;0.90;;
16460;SDS011;8341;42.048;24.650;2023-12-20T00:24:24;1.15;;;0.80;;
16460;SDS011;8341;42.048;24.650;2023-12-20T00:26:51;2.83;;;1.08;;
16460;SDS011;8341;42.048;24.650;2023-12-20T00:29:19;0.70;;;0.70;;
16460;SDS011;8341;42.048;24.650;2023-12-20T00:31:46;1.38;;;1.00;;
16460;SDS011;8341;42.048;24.650;2023-12-20T00:34:13;2.38;;;1.20;;
16460;SDS011;8341;42.048;24.650;2023-12-20T00:36:39;1.55;;;1.00;;
16460;SDS011;8341;42.048;24.650;2023-12-20T00:39:06;0.95;;;0.80;;
16460;SDS011;8341;42.048;24.650;2023-12-20T00:41:33;1.90;;;1.60;;
16460;SDS011;8341;42.048;24.650;2023-12-20T00:44:00;2.53;;;1.55;;
16460;SDS011;8341;42.048;24.650;2023-12-20T00:46:29;3.05;;;1.33;;
16460;SDS011;8341;42.048;24.650;2023-12-20T00:48:56;3.45;;;1.50;;
16460;SDS011;8341;42.048;24.650;2023-12-20T00:51:23;3.08;;;1.20;;
16460;SDS011;8341;42.048;24.650;2023-12-20T00:53:49;1.13;;;1.02;;
16460;SDS011;8341;42.048;24.650;2023-12-20T00:56:19;2.88;;;1.23;;
16460;SDS011;8341;42.048;24.650;2023-12-20T00:58:46;1.95;;;1.30;;
16460;SDS011;8341;42.048;24.650;2023-12-20T01:01:13;1.57;;;1.47;;
16460;SDS011;8341;42.048;24.650;2023-12-20T01:03:41;2.27;;;1.37;;
16460;SDS011;8341;42.048;24.650;2023-12-20T01:06:08;0.90;;;0.70;;
16460;SDS011;8341;42.048;24.650;2023-12-20T01:08:35;0.83;;;0.80;;
16460;SDS011;8341;42.048;24.650;2023-12-20T01:11:03;1.13;;;0.97;;
16460;SDS011;8341;42.048;24.650;2023-12-20T01:13:30;1.30;;;0.80;;
16460;SDS011;8341;42.048;24.650;2023-12-20T01:15:57;1.77;;;0.97;;
16460;SDS011;8341;42.048;24.650;2023-12-20T01:18:24;1.40;;;1.20;;
16460;SDS011;8341;42.048;24.650;2023-12-20T01:20:52;1.87;;;1.30;;
16460;SDS011;8341;42.048;24.650;2023-12-20T01:23:19;1.23;;;1.13;;
16460;SDS011;8341;42.048;24.650;2023-12-20T01:25:45;1.90;;;1.30;;
16460;SDS011;8341;42.048;24.650;2023-12-20T01:28:12;1.67;;;1.20;;
16460;SDS011;8341;42.048;24.650;2023-12-20T01:30:39;2.13;;;1.30;;
16460;SDS011;8341;42.048;24.650;2023-12-20T01:33:06;3.90;;;1.50;;
16460;SDS011;8341;42.048;24.650;2023-12-20T01:35:33;2.67;;;1.43;;
16460;SDS011;8341;42.048;24.650;2023-12-20T01:38:01;2.80;;;1.83;;
16460;SDS011;8341;42.048;24.650;2023-12-20T01:40:28;2.05;;;1.33;;
16460;SDS011;8341;42.048;24.650;2023-12-20T01:42:58;2.20;;;1.40;;
16460;SDS011;8341;42.048;24.650;2023-12-20T01:45:25;1.53;;;1.13;;
16460;SDS011;8341;42.048;24.650;2023-12-20T01:47:52;1.83;;;1.10;;
16460;SDS011;8341;42.048;24.650;2023-12-20T01:50:19;2.07;;;1.30;;
16460;SDS011;8341;42.048;24.650;2023-12-20T01:52:47;2.30;;;1.30;;
16460;SDS011;8341;42.048;24.650;2023-12-20T01:55:18;2.20;;;1.03;;
16460;SDS011;8341;42.048;24.650;2023-12-20T01:57:46;2.80;;;1.20;;
16460;SDS011;8341;42.048;24.650;2023-12-20T02:00:14;1.67;;;1.10;;
16460;SDS011;8341;42.048;24.650;2023-12-20T02:02:41;1.50;;;1.00;;
16460;SDS011;8341;42.048;24.650;2023-12-20T02:05:10;1.43;;;1.20;;
16460;SDS011;8341;42.048;24.650;2023-12-20T02:07:38;2.77;;;1.53;;
16460;SDS011;8341;42.048;24.650;2023-12-20T02:10:04;1.50;;;1.20;;
16460;SDS011;8341;42.048;24.650;2023-12-20T02:12:33;2.30;;;1.10;;
16460;SDS011;8341;42.048;24.650;2023-12-20T02:15:00;1.20;;;0.90;;
16460;SDS011;8341;42.048;24.650;2023-12-20T02:17:27;1.27;;;0.90;;
16460;SDS011;8341;42.048;24.650;2023-12-20T02:19:54;3.20;;;1.00;;
16460;SDS011;8341;42.048;24.650;2023-12-20T02:22:22;1.20;;;1.10;;
16460;SDS011;8341;42.048;24.650;2023-12-20T02:24:49;0.87;;;0.70;;
16460;SDS011;8341;42.048;24.650;2023-12-20T02:27:15;0.97;;;0.60;;
16460;SDS011;8341;42.048;24.650;2023-12-20T02:29:46;0.70;;;0.70;;
16460;SDS011;8341;42.048;24.650;2023-12-20T02:32:14;0.60;;;0.60;;
16460;SDS011;8341;42.048;24.650;2023-12-20T02:34:40;2.17;;;1.00;;
16460;SDS011;8341;42.048;24.650;2023-12-20T02:37:07;1.40;;;1.10;;
16460;SDS011;8341;42.048;24.650;2023-12-20T02:39:35;1.93;;;0.90;;
16460;SDS011;8341;42.048;24.650;2023-12-20T02:42:02;0.97;;;0.70;;
16460;SDS011;8341;42.048;24.650;2023-12-20T02:44:30;0.70;;;0.70;;
16460;SDS011;8341;42.048;24.650;2023-12-20T02:46:56;2.87;;;2.40;;
16460;SDS011;8341;42.048;24.650;2023-12-20T02:49:23;2.40;;;2.20;;
16460;SDS011;8341;42.048;24.650;2023-12-20T02:51:50;2.47;;;1.10;;
16460;SDS011;8341;42.048;24.650;2023-12-20T02:54:16;1.10;;;0.60;;
16460;SDS011;8341;42.048;24.650;2023-12-20T02:56:45;1.10;;;1.00;;
16460;SDS011;8341;42.048;24.650;2023-12-20T02:59:11;1.20;;;0.90;;
16460;SDS011;8341;42.048;24.650;2023-12-20T03:01:41;0.87;;;0.70;;
16460;SDS011;8341;42.048;24.650;2023-12-20T03:04:08;0.63;;;0.63;;
16460;SDS011;8341;42.048;24.650;2023-12-20T03:06:35;1.17;;;0.67;;
16460;SDS011;8341;42.048;24.650;2023-12-20T03:09:02;0.60;;;0.60;;
16460;SDS011;8341;42.048;24.650;2023-12-20T03:11:29;1.90;;;0.73;;
16460;SDS011;8341;42.048;24.650;2023-12-20T03:13:57;1.60;;;0.87;;
16460;SDS011;8341;42.048;24.650;2023-12-20T03:16:24;1.40;;;0.80;;
16460;SDS011;8341;42.048;24.650;2023-12-20T03:18:51;0.90;;;0.83;;
16460;SDS011;8341;42.048;24.650;2023-12-20T03:21:18;0.90;;;0.70;;
16460;SDS011;8341;42.048;24.650;2023-12-20T03:23:44;0.97;;;0.70;;
16460;SDS011;8341;42.048;24.650;2023-12-20T03:26:11;1.57;;;0.73;;
16460;SDS011;8341;42.048;24.650;2023-12-20T03:28:38;1.00;;;0.90;;
16460;SDS011;8341;42.048;24.650;2023-12-20T03:31:06;1.50;;;0.90;;
16460;SDS011;8341;42.048;24.650;2023-12-20T03:33:33;1.50;;;0.87;;
16460;SDS011;8341;42.048;24.650;2023-12-20T03:36:00;1.33;;;0.60;;
16460;SDS011;8341;42.048;24.650;2023-12-20T03:38:26;0.63;;;0.63;;
16460;SDS011;8341;42.048;24.650;2023-12-20T03:40:53;0.90;;;0.80;;
16460;SDS011;8341;42.048;24.650;2023-12-20T03:43:20;0.85;;;0.55;;
16460;SDS011;8341;42.048;24.650;2023-12-20T03:45:47;0.77;;;0.70;;
16460;SDS011;8341;42.048;24.650;2023-12-20T03:48:15;0.60;;;0.50;;
16460;SDS011;8341;42.048;24.650;2023-12-20T03:50:42;0.47;;;0.47;;
16460;SDS011;8341;42.048;24.650;2023-12-20T03:53:08;1.47;;;0.60;;
16460;SDS011;8341;42.048;24.650;2023-12-20T03:55:35;1.07;;;0.70;;
16460;SDS011;8341;42.048;24.650;2023-12-20T03:58:02;0.40;;;0.40;;
16460;SDS011;8341;42.048;24.650;2023-12-20T04:00:29;1.03;;;0.60;;
16460;SDS011;8341;42.048;24.650;2023-12-20T04:02:56;0.60;;;0.60;;
16460;SDS011;8341;42.048;24.650;2023-12-20T04:05:24;0.50;;;0.50;;
16460;SDS011;8341;42.048;24.650;2023-12-20T04:07:51;2.00;;;0.50;;
16460;SDS011;8341;42.048;24.650;2023-12-20T04:10:17;0.60;;;0.50;;
16460;SDS011;8341;42.048;24.650;2023-12-20T04:12:44;1.23;;;0.70;;
16460;SDS011;8341;42.048;24.650;2023-12-20T04:15:11;1.43;;;0.80;;
16460;SDS011;8341;42.048;24.650;2023-12-20T04:17:38;1.23;;;1.10;;
16460;SDS011;8341;42.048;24.650;2023-12-20T04:20:05;2.10;;;1.03;;
16460;SDS011;8341;42.048;24.650;2023-12-20T04:22:34;0.90;;;0.70;;
16460;SDS011;8341;42.048;24.650;2023-12-20T04:25:00;2.00;;;0.77;;
16460;SDS011;8341;42.048;24.650;2023-12-20T04:27:28;0.83;;;0.70;;
16460;SDS011;8341;42.048;24.650;2023-12-20T04:29:55;0.70;;;0.70;;
16460;SDS011;8341;42.048;24.650;2023-12-20T04:32:21;1.50;;;0.70;;
16460;SDS011;8341;42.048;24.650;2023-12-20T04:34:48;0.60;;;0.60;;
16460;SDS011;8341;42.048;24.650;2023-12-20T04:37:15;0.50;;;0.50;;
16460;SDS011;8341;42.048;24.650;2023-12-20T04:39:43;1.03;;;0.80;;
16460;SDS011;8341;42.048;24.650;2023-12-20T04:42:10;3.47;;;2.10;;
16460;SDS011;8341;42.048;24.650;2023-12-20T04:44:37;0.90;;;0.67;;
16460;SDS011;8341;42.048;24.650;2023-12-20T04:47:04;0.57;;;0.50;;
16460;SDS011;8341;42.048;24.650;2023-12-20T04:49:30;0.50;;;0.50;;
16460;SDS011;8341;42.048;24.650;2023-12-20T04:51:57;0.80;;;0.63;;
16460;SDS011;8341;42.048;24.650;2023-12-20T04:54:24;0.93;;;0.40;;
16460;SDS011;8341;42.048;24.650;2023-12-20T04:56:52;0.60;;;0.60;;
16460;SDS011;8341;42.048;24.650;2023-12-20T04:59:18;1.90;;;1.30;;
16460;SDS011;8341;42.048;24.650;2023-12-20T05:01:45;1.70;;;1.10;;
16460;SDS011;8341;42.048;24.650;2023-12-20T05:04:12;1.03;;;0.70;;
16460;SDS011;8341;42.048;24.650;2023-12-20T05:06:39;1.27;;;0.80;;
16460;SDS011;8341;42.048;24.650;2023-12-20T05:09:06;1.08;;;0.80;;
16460;SDS011;8341;42.048;24.650;2023-12-20T05:11:34;2.30;;;1.60;;
16460;SDS011;8341;42.048;24.650;2023-12-20T05:14:02;1.23;;;0.80;;
16460;SDS011;8341;42.048;24.650;2023-12-20T05:16:29;1.33;;;0.80;;
16460;SDS011;8341;42.048;24.650;2023-12-20T05:18:56;2.58;;;1.52;;
16460;SDS011;8341;42.048;24.650;2023-12-20T05:21:23;3.53;;;2.07;;
16460;SDS011;8341;42.048;24.650;2023-12-20T05:23:50;4.43;;;2.07;;
16460;SDS011;8341;42.048;24.650;2023-12-20T05:26:17;5.97;;;3.53;;
16460;SDS011;8341;42.048;24.650;2023-12-20T05:28:44;1.57;;;1.40;;
16460;SDS011;8341;42.048;24.650;2023-12-20T05:31:12;1.50;;;1.30;;
16460;SDS011;8341;42.048;24.650;2023-12-20T05:33:39;61.67;;;21.97;;
16460;SDS011;8341;42.048;24.650;2023-12-20T05:36:06;25.67;;;9.17;;
16460;SDS011;8341;42.048;24.650;2023-12-20T05:38:36;2.00;;;1.13;;
16460;SDS011;8341;42.048;24.650;2023-12-20T05:41:03;0.80;;;0.80;;
16460;SDS011;8341;42.048;24.650;2023-12-20T05:43:30;0.93;;;0.90;;
16460;SDS011;8341;42.048;24.650;2023-12-20T05:45:56;2.60;;;1.90;;
16460;SDS011;8341;42.048;24.650;2023-12-20T05:48:25;1.23;;;0.70;;
16460;SDS011;8341;42.048;24.650;2023-12-20T05:50:52;1.27;;;1.00;;
16460;SDS011;8341;42.048;24.650;2023-12-20T05:53:19;1.57;;;0.73;;
16460;SDS011;8341;42.048;24.650;2023-12-20T05:55:46;2.23;;;1.40;;
16460;SDS011;8341;42.048;24.650;2023-12-20T05:58:13;2.53;;;1.00;;
16460;SDS011;8341;42.048;24.650;2023-12-20T06:00:39;0.60;;;0.60;;
16460;SDS011;8341;42.048;24.650;2023-12-20T06:03:06;1.00;;;0.80;;
16460;SDS011;8341;42.048;24.650;2023-12-20T06:05:34;1.27;;;1.00;;
16460;SDS011;8341;42.048;24.650;2023-12-20T06:08:01;2.77;;;1.73;;
16460;SDS011;8341;42.048;24.650;2023-12-20T06:10:28;1.33;;;1.17;;
16460;SDS011;8341;42.048;24.650;2023-12-20T06:12:55;2.23;;;1.50;;
16460;SDS011;8341;42.048;24.650;2023-12-20T06:15:23;19.17;;;13.03;;
16460;SDS011;8341;42.048;24.650;2023-12-20T06:17:50;1.30;;;1.20;;
16460;SDS011;8341;42.048;24.650;2023-12-20T06:20:17;1.13;;;0.93;;
16460;SDS011;8341;42.048;24.650;2023-12-20T06:22:45;1.10;;;1.00;;
16460;SDS011;8341;42.048;24.650;2023-12-20T06:25:12;2.67;;;0.90;;
16460;SDS011;8341;42.048;24.650;2023-12-20T06:27:38;5.43;;;2.63;;
16460;SDS011;8341;42.048;24.650;2023-12-20T06:30:06;3.47;;;2.03;;
16460;SDS011;8341;42.048;24.650;2023-12-20T06:32:34;3.93;;;2.97;;
16460;SDS011;8341;42.048;24.650;2023-12-20T06:35:03;5.83;;;3.30;;
16460;SDS011;8341;42.048;24.650;2023-12-20T06:37:31;2.80;;;2.10;;
16460;SDS011;8341;42.048;24.650;2023-12-20T06:39:59;1.57;;;1.10;;
16460;SDS011;8341;42.048;24.650;2023-12-20T06:42:26;3.07;;;1.30;;
16460;SDS011;8341;42.048;24.650;2023-12-20T06:44:53;1.40;;;1.00;;
16460;SDS011;8341;42.048;24.650;2023-12-20T06:47:20;0.97;;;0.67;;
16460;SDS011;8341;42.048;24.650;2023-12-20T06:49:47;0.67;;;0.60;;
16460;SDS011;8341;42.048;24.650;2023-12-20T06:52:13;0.80;;;0.57;;
16460;SDS011;8341;42.048;24.650;2023-12-20T06:54:40;3.47;;;2.10;;
16460;SDS011;8341;42.048;24.650;2023-12-20T06:57:08;2.93;;;2.00;;
16460;SDS011;8341;42.048;24.650;2023-12-20T06:59:38;7.13;;;5.00;;
16460;SDS011;8341;42.048;24.650;2023-12-20T07:02:05;5.00;;;3.80;;
16460;SDS011;8341;42.048;24.650;2023-12-20T07:04:32;4.47;;;3.37;;
16460;SDS011;8341;42.048;24.650;2023-12-20T07:06:59;4.97;;;3.47;;
16460;SDS011;8341;42.048;24.650;2023-12-20T07:09:26;1.10;;;1.00;;
16460;SDS011;8341;42.048;24.650;2023-12-20T07:11:52;2.72;;;2.08;;
16460;SDS011;8341;42.048;24.650;2023-12-20T07:14:21;5.63;;;3.73;;
16460;SDS011;8341;42.048;24.650;2023-12-20T07:16:48;9.00;;;5.43;;
16460;SDS011;8341;42.048;24.650;2023-12-20T07:19:14;22.33;;;15.97;;
16460;SDS011;8341;42.048;24.650;2023-12-20T07:21:41;6.20;;;4.60;;
16460;SDS011;8341;42.048;24.650;2023-12-20T07:24:08;2.90;;;1.83;;
16460;SDS011;8341;42.048;24.650;2023-12-20T07:26:35;4.93;;;2.70;;
16460;SDS011;8341;42.048;24.650;2023-12-20T07:29:04;12.65;;;9.52;;
16460;SDS011;8341;42.048;24.650;2023-12-20T07:31:33;18.77;;;12.77;;
16460;SDS011;8341;42.048;24.650;2023-12-20T07:34:00;71.78;;;36.65;;
16460;SDS011;8341;42.048;24.650;2023-12-20T07:36:26;53.10;;;28.38;;
16460;SDS011;8341;42.048;24.650;2023-12-20T07:38:53;31.93;;;17.20;;
16460;SDS011;8341;42.048;24.650;2023-12-20T07:41:20;10.65;;;5.43;;
16460;SDS011;8341;42.048;24.650;2023-12-20T07:43:48;4.93;;;3.47;;
16460;SDS011;8341;42.048;24.650;2023-12-20T07:46:15;4.20;;;2.83;;
16460;SDS011;8341;42.048;24.650;2023-12-20T07:48:44;5.60;;;3.10;;
16460;SDS011;8341;42.048;24.650;2023-12-20T07:51:11;14.20;;;6.88;;
16460;SDS011;8341;42.048;24.650;2023-12-20T07:53:38;8.80;;;6.00;;
16460;SDS011;8341;42.048;24.650;2023-12-20T07:56:13;10.38;;;5.97;;
16460;SDS011;8341;42.048;24.650;2023-12-20T07:58:40;4.65;;;3.35;;
16460;SDS011;8341;42.048;24.650;2023-12-20T08:01:07;8.07;;;5.43;;
16460;SDS011;8341;42.048;24.650;2023-12-20T08:03:34;6.35;;;4.50;;
16460;SDS011;8341;42.048;24.650;2023-12-20T08:06:02;8.82;;;5.68;;
16460;SDS011;8341;42.048;24.650;2023-12-20T08:08:29;10.00;;;6.10;;
16460;SDS011;8341;42.048;24.650;2023-12-20T08:10:56;22.08;;;12.75;;
16460;SDS011;8341;42.048;24.650;2023-12-20T08:13:25;59.80;;;34.00;;
16460;SDS011;8341;42.048;24.650;2023-12-20T08:15:52;39.40;;;24.05;;
16460;SDS011;8341;42.048;24.650;2023-12-20T08:18:20;23.88;;;15.48;;
16460;SDS011;8341;42.048;24.650;2023-12-20T08:20:47;14.55;;;9.40;;
16460;SDS011;8341;42.048;24.650;2023-12-20T08:23:16;8.20;;;5.00;;
16460;SDS011;8341;42.048;24.650;2023-12-20T08:25:42;11.43;;;7.45;;
16460;SDS011;8341;42.048;24.650;2023-12-20T08:28:10;24.33;;;11.82;;
16460;SDS011;8341;42.048;24.650;2023-12-20T08:30:36;19.60;;;8.70;;
16460;SDS011;8341;42.048;24.650;2023-12-20T08:33:03;20.50;;;10.38;;
16460;SDS011;8341;42.048;24.650;2023-12-20T08:35:32;9.45;;;6.15;;
16460;SDS011;8341;42.048;24.650;2023-12-20T08:37:59;8.80;;;5.72;;
16460;SDS011;8341;42.048;24.650;2023-12-20T08:40:27;7.95;;;5.85;;
16460;SDS011;8341;42.048;24.650;2023-12-20T08:42:54;12.25;;;8.98;;
16460;SDS011;8341;42.048;24.650;2023-12-20T08:45:21;15.02;;;9.50;;
16460;SDS011;8341;42.048;24.650;2023-12-20T08:47:48;8.55;;;6.30;;
16460;SDS011;8341;42.048;24.650;2023-12-20T08:50:14;15.50;;;9.70;;
16460;SDS011;8341;42.048;24.650;2023-12-20T08:52:41;64.05;;;30.98;;
16460;SDS011;8341;42.048;24.650;2023-12-20T08:55:08;31.42;;;16.70;;
16460;SDS011;8341;42.048;24.650;2023-12-20T08:57:37;16.55;;;9.63;;
16460;SDS011;8341;42.048;24.650;2023-12-20T09:00:04;22.45;;;12.25;;
16460;SDS011;8341;42.048;24.650;2023-12-20T09:02:33;27.33;;;16.75;;
16460;SDS011;8341;42.048;24.650;2023-12-20T09:05:01;30.45;;;18.52;;
16460;SDS011;8341;42.048;24.650;2023-12-20T09:07:28;25.17;;;15.93;;
16460;SDS011;8341;42.048;24.650;2023-12-20T09:09:57;16.75;;;12.02;;
16460;SDS011;8341;42.048;24.650;2023-12-20T09:12:24;13.68;;;9.63;;
16460;SDS011;8341;42.048;24.650;2023-12-20T09:14:52;13.18;;;9.25;;
16460;SDS011;8341;42.048;24.650;2023-12-20T09:17:19;13.55;;;10.23;;
16460;SDS011;8341;42.048;24.650;2023-12-20T09:19:48;10.93;;;8.82;;
16460;SDS011;8341;42.048;24.650;2023-12-20T09:22:17;14.50;;;10.40;;
16460;SDS011;8341;42.048;24.650;2023-12-20T09:24:45;18.95;;;12.85;;
16460;SDS011;8341;42.048;24.650;2023-12-20T09:27:12;17.77;;;13.35;;
16460;SDS011;8341;42.048;24.650;2023-12-20T09:29:39;19.45;;;12.88;;
16460;SDS011;8341;42.048;24.650;2023-12-20T09:32:07;21.15;;;14.32;;
16460;SDS011;8341;42.048;24.650;2023-12-20T09:34:34;17.30;;;12.32;;
16460;SDS011;8341;42.048;24.650;2023-12-20T09:37:02;15.35;;;10.93;;
16460;SDS011;8341;42.048;24.650;2023-12-20T09:39:29;11.90;;;8.77;;
16460;SDS011;8341;42.048;24.650;2023-12-20T09:42:00;12.30;;;8.68;;
16460;SDS011;8341;42.048;24.650;2023-12-20T09:44:29;13.68;;;9.93;;
16460;SDS011;8341;42.048;24.650;2023-12-20T09:46:56;12.18;;;8.77;;
16460;SDS011;8341;42.048;24.650;2023-12-20T09:49:25;12.73;;;9.23;;
16460;SDS011;8341;42.048;24.650;2023-12-20T09:51:54;13.23;;;9.55;;
16460;SDS011;8341;42.048;24.650;2023-12-20T09:54:21;11.13;;;8.02;;
16460;SDS011;8341;42.048;24.650;2023-12-20T09:56:50;9.98;;;7.63;;
16460;SDS011;8341;42.048;24.650;2023-12-20T09:59:16;13.38;;;9.20;;
16460;SDS011;8341;42.048;24.650;2023-12-20T10:01:44;13.23;;;9.38;;
16460;SDS011;8341;42.048;24.650;2023-12-20T10:04:11;19.95;;;13.10;;
16460;SDS011;8341;42.048;24.650;2023-12-20T10:06:41;20.10;;;13.68;;
16460;SDS011;8341;42.048;24.650;2023-12-20T10:09:08;17.48;;;12.65;;
16460;SDS011;8341;42.048;24.650;2023-12-20T10:11:36;20.30;;;12.85;;
16460;SDS011;8341;42.048;24.650;2023-12-20T10:14:03;11.07;;;8.30;;
16460;SDS011;8341;42.048;24.650;2023-12-20T10:16:31;12.85;;;9.35;;
16460;SDS011;8341;42.048;24.650;2023-12-20T10:18:59;21.42;;;12.30;;
16460;SDS011;8341;42.048;24.650;2023-12-20T10:21:27;18.45;;;12.50;;
16460;SDS011;8341;42.048;24.650;2023-12-20T10:23:56;16.20;;;10.50;;
16460;SDS011;8341;42.048;24.650;2023-12-20T10:26:24;16.42;;;11.15;;
16460;SDS011;8341;42.048;24.650;2023-12-20T10:28:53;15.68;;;10.10;;
16460;SDS011;8341;42.048;24.650;2023-12-20T10:31:27;10.82;;;9.07;;
16460;SDS011;8341;42.048;24.650;2023-12-20T10:33:55;12.02;;;9.45;;
16460;SDS011;8341;42.048;24.650;2023-12-20T10:36:25;12.15;;;8.82;;
16460;SDS011;8341;42.048;24.650;2023-12-20T10:38:53;12.27;;;8.98;;
16460;SDS011;8341;42.048;24.650;2023-12-20T10:41:24;12.88;;;9.02;;
16460;SDS011;8341;42.048;24.650;2023-12-20T10:43:53;13.38;;;8.70;;
16460;SDS011;8341;42.048;24.650;2023-12-20T10:46:21;14.25;;;10.60;;
16460;SDS011;8341;42.048;24.650;2023-12-20T10:48:48;13.13;;;10.30;;
16460;SDS011;8341;42.048;24.650;2023-12-20T10:51:19;14.18;;;10.90;;
16460;SDS011;8341;42.048;24.650;2023-12-20T10:53:48;14.52;;;11.25;;
16460;SDS011;8341;42.048;24.650;2023-12-20T10:56:16;14.35;;;10.48;;
16460;SDS011;8341;42.048;24.650;2023-12-20T10:58:46;13.80;;;9.88;;
16460;SDS011;8341;42.048;24.650;2023-12-20T11:01:14;16.23;;;11.02;;
16460;SDS011;8341;42.048;24.650;2023-12-20T11:03:45;15.02;;;10.32;;
16460;SDS011;8341;42.048;24.650;2023-12-20T11:06:19;13.63;;;10.43;;
16460;SDS011;8341;42.048;24.650;2023-12-20T11:09:06;12.52;;;9.05;;
16460;SDS011;8341;42.048;24.650;2023-12-20T11:11:48;16.48;;;8.85;;
16460;SDS011;8341;42.048;24.650;2023-12-20T11:14:29;10.52;;;7.18;;
16460;SDS011;8341;42.048;24.650;2023-12-20T11:17:08;11.00;;;8.50;;
16460;SDS011;8341;42.048;24.650;2023-12-20T11:19:36;11.55;;;9.38;;
16460;SDS011;8341;42.048;24.650;2023-12-20T11:22:04;13.40;;;10.63;;
16460;SDS011;8341;42.048;24.650;2023-12-20T11:24:32;13.90;;;10.38;;
16460;SDS011;8341;42.048;24.650;2023-12-20T11:27:03;13.25;;;9.63;;
16460;SDS011;8341;42.048;24.650;2023-12-20T11:29:32;14.02;;;10.77;;
16460;SDS011;8341;42.048;24.650;2023-12-20T11:32:01;15.30;;;10.60;;
16460;SDS011;8341;42.048;24.650;2023-12-20T11:34:31;15.05;;;10.13;;
16460;SDS011;8341;42.048;24.650;2023-12-20T11:36:59;11.48;;;7.25;;
16460;SDS011;8341;42.048;24.650;2023-12-20T11:39:26;15.52;;;10.45;;
16460;SDS011;8341;42.048;24.650;2023-12-20T11:41:55;11.35;;;8.95;;
16460;SDS011;8341;42.048;24.650;2023-12-20T11:44:25;13.98;;;10.32;;
16460;SDS011;8341;42.048;24.650;2023-12-20T11:46:53;13.32;;;10.00;;
16460;SDS011;8341;42.048;24.650;2023-12-20T11:49:24;13.48;;;9.38;;
16460;SDS011;8341;42.048;24.650;2023-12-20T11:51:51;17.25;;;11.35;;
16460;SDS011;8341;42.048;24.650;2023-12-20T11:54:18;17.05;;;11.93;;
16460;SDS011;8341;42.048;24.650;2023-12-20T11:56:45;19.50;;;11.00;;
16460;SDS011;8341;42.048;24.650;2023-12-20T11:59:12;15.98;;;11.65;;
16460;SDS011;8341;42.048;24.650;2023-12-20T12:01:39;16.27;;;12.02;;
16460;SDS011;8341;42.048;24.650;2023-12-20T12:04:07;15.98;;;10.82;;
16460;SDS011;8341;42.048;24.650;2023-12-20T12:06:34;16.98;;;11.60;;
16460;SDS011;8341;42.048;24.650;2023-12-20T12:09:01;20.13;;;11.88;;
16460;SDS011;8341;42.048;24.650;2023-12-20T12:11:29;16.98;;;11.00;;
16460;SDS011;8341;42.048;24.650;2023-12-20T12:13:56;17.60;;;11.00;;
16460;SDS011;8341;42.048;24.650;2023-12-20T12:16:23;13.98;;;10.88;;
16460;SDS011;8341;42.048;24.650;2023-12-20T12:18:55;19.27;;;10.73;;
16460;SDS011;8341;42.048;24.650;2023-12-20T12:21:23;16.60;;;10.48;;
16460;SDS011;8341;42.048;24.650;2023-12-20T12:23:50;15.23;;;10.57;;
16460;SDS011;8341;42.048;24.650;2023-12-20T12:26:18;14.82;;;10.40;;
16460;SDS011;8341;42.048;24.650;2023-12-20T12:28:45;14.88;;;10.57;;
16460;SDS011;8341;42.048;24.650;2023-12-20T12:31:15;13.70;;;9.80;;
16460;SDS011;8341;42.048;24.650;2023-12-20T12:33:42;13.60;;;10.05;;
16460;SDS011;8341;42.048;24.650;2023-12-20T12:36:09;15.60;;;10.70;;
16460;SDS011;8341;42.048;24.650;2023-12-20T12:38:38;17.45;;;11.02;;
16460;SDS011;8341;42.048;24.650;2023-12-20T12:41:04;18.02;;;11.25;;
16460;SDS011;8341;42.048;24.650;2023-12-20T12:43:32;18.00;;;10.88;;
16460;SDS011;8341;42.048;24.650;2023-12-20T12:45:59;14.25;;;11.45;;
16460;SDS011;8341;42.048;24.650;2023-12-20T12:48:26;14.82;;;10.90;;
16460;SDS011;8341;42.048;24.650;2023-12-20T12:50:54;18.50;;;11.30;;
16460;SDS011;8341;42.048;24.650;2023-12-20T12:53:24;16.63;;;11.75;;
16460;SDS011;8341;42.048;24.650;2023-12-20T12:55:53;16.20;;;11.75;;
16460;SDS011;8341;42.048;24.650;2023-12-20T12:58:20;15.30;;;10.95;;
16460;SDS011;8341;42.048;24.650;2023-12-20T13:00:47;16.70;;;11.55;;
16460;SDS011;8341;42.048;24.650;2023-12-20T13:03:14;16.48;;;11.90;;
16460;SDS011;8341;42.048;24.650;2023-12-20T13:05:41;22.00;;;13.10;;
16460;SDS011;8341;42.048;24.650;2023-12-20T13:08:09;18.17;;;12.65;;
16460;SDS011;8341;42.048;24.650;2023-12-20T13:10:37;16.70;;;13.38;;
16460;SDS011;8341;42.048;24.650;2023-12-20T13:13:05;13.57;;;10.95;;
16460;SDS011;8341;42.048;24.650;2023-12-20T13:15:32;19.55;;;12.35;;
16460;SDS011;8341;42.048;24.650;2023-12-20T13:17:59;24.08;;;17.85;;
16460;SDS011;8341;42.048;24.650;2023-12-20T13:20:26;16.60;;;11.50;;
16460;SDS011;8341;42.048;24.650;2023-12-20T13:22:53;19.85;;;13.45;;
16460;SDS011;8341;42.048;24.650;2023-12-20T13:25:19;18.25;;;13.52;;
16460;SDS011;8341;42.048;24.650;2023-12-20T13:27:46;22.23;;;14.02;;
16460;SDS011;8341;42.048;24.650;2023-12-20T13:30:14;20.45;;;14.48;;
16460;SDS011;8341;42.048;24.650;2023-12-20T13:32:42;26.27;;;17.02;;
16460;SDS011;8341;42.048;24.650;2023-12-20T13:35:09;27.30;;;18.98;;
16460;SDS011;8341;42.048;24.650;2023-12-20T13:37:36;24.15;;;15.52;;
16460;SDS011;8341;42.048;24.650;2023-12-20T13:40:03;22.50;;;16.10;;
16460;SDS011;8341;42.048;24.650;2023-12-20T13:42:31;18.40;;;12.02;;
16460;SDS011;8341;42.048;24.650;2023-12-20T13:44:58;19.60;;;13.82;;
16460;SDS011;8341;42.048;24.650;2023-12-20T13:47:26;21.45;;;15.93;;
16460;SDS011;8341;42.048;24.650;2023-12-20T13:49:52;24.50;;;16.83;;
16460;SDS011;8341;42.048;24.650;2023-12-20T13:52:19;19.45;;;13.50;;
16460;SDS011;8341;42.048;24.650;2023-12-20T13:54:46;23.65;;;15.25;;
16460;SDS011;8341;42.048;24.650;2023-12-20T13:57:13;21.73;;;15.50;;
16460;SDS011;8341;42.048;24.650;2023-12-20T13:59:40;24.95;;;17.98;;
16460;SDS011;8341;42.048;24.650;2023-12-20T14:02:07;34.55;;;23.55;;
16460;SDS011;8341;42.048;24.650;2023-12-20T14:04:35;34.00;;;22.80;;
16460;SDS011;8341;42.048;24.650;2023-12-20T14:07:04;29.23;;;20.38;;
16460;SDS011;8341;42.048;24.650;2023-12-20T14:09:32;26.83;;;17.08;;
16460;SDS011;8341;42.048;24.650;2023-12-20T14:11:59;26.92;;;20.30;;
16460;SDS011;8341;42.048;24.650;2023-12-20T14:14:26;23.70;;;15.77;;
16460;SDS011;8341;42.048;24.650;2023-12-20T14:16:53;24.40;;;15.32;;
16460;SDS011;8341;42.048;24.650;2023-12-20T14:19:19;23.88;;;16.30;;
16460;SDS011;8341;42.048;24.650;2023-12-20T14:21:47;23.17;;;15.98;;
16460;SDS011;8341;42.048;24.650;2023-12-20T14:24:14;22.08;;;14.60;;
16460;SDS011;8341;42.048;24.650;2023-12-20T14:26:41;21.75;;;15.68;;
16460;SDS011;8341;42.048;24.650;2023-12-20T14:29:08;23.10;;;15.18;;
16460;SDS011;8341;42.048;24.650;2023-12-20T14:31:35;22.42;;;14.13;;
16460;SDS011;8341;42.048;24.650;2023-12-20T14:34:03;24.88;;;16.02;;
16460;SDS011;8341;42.048;24.650;2023-12-20T14:36:30;29.65;;;19.25;;
16460;SDS011;8341;42.048;24.650;2023-12-20T14:38:57;23.90;;;15.48;;
16460;SDS011;8341;42.048;24.650;2023-12-20T14:41:24;29.70;;;16.90;;